sensor_id;sensor_type;location;lat;lon;timestamp;pressure;altitude;pressure_sealevel;temperature;humidity
75629;BME280;64213;46.452;16.994;2023-09-12T00:02:52;99576.84;;;17.34;93.13
75629;BME280;64213;46.452;16.994;2023-09-12T00:05:56;99575.00;;;17.34;92.86
75629;BME280;64213;46.452;16.994;2023-09-12T00:08:59;99570.34;;;17.36;92.45
75629;BME280;64213;46.452;16.994;2023-09-12T00:12:01;99574.41;;;17.40;92.77
75629;BME280;64213;46.452;16.994;2023-09-12T00:15:05;99563.09;;;17.47;92.62
75629;BME280;64213;46.452;16.994;2023-09-12T00:18:07;99563.09;;;17.47;92.08
75629;BME280;64213;46.452;16.994;2023-09-12T00:21:10;99564.09;;;17.46;92.42
75629;BME280;64213;46.452;16.994;2023-09-12T00:24:12;99565.06;;;17.44;92.35
75629;BME280;64213;46.452;16.994;2023-09-12T00:27:15;99569.06;;;17.40;92.91
75629;BME280;64213;46.452;16.994;2023-09-12T00:30:17;99565.69;;;17.38;93.04
75629;BME280;64213;46.452;16.994;2023-09-12T00:33:19;99550.94;;;17.34;93.09
75629;BME280;64213;46.452;16.994;2023-09-12T00:36:22;99554.75;;;17.32;92.97
75629;BME280;64213;46.452;16.994;2023-09-12T00:39:24;99560.81;;;17.34;92.65
75629;BME280;64213;46.452;16.994;2023-09-12T00:42:27;99556.91;;;17.28;91.94
75629;BME280;64213;46.452;16.994;2023-09-12T00:45:29;99558.50;;;17.21;91.95
75629;BME280;64213;46.452;16.994;2023-09-12T00:48:32;99560.66;;;17.17;92.29
75629;BME280;64213;46.452;16.994;2023-09-12T00:51:35;99559.72;;;17.09;92.09
75629;BME280;64213;46.452;16.994;2023-09-12T00:54:40;99560.88;;;17.06;91.15
75629;BME280;64213;46.452;16.994;2023-09-12T00:57:43;99572.31;;;16.99;91.17
75629;BME280;64213;46.452;16.994;2023-09-12T01:00:45;99572.47;;;16.97;91.14
75629;BME280;64213;46.452;16.994;2023-09-12T01:03:49;99570.25;;;16.92;91.07
75629;BME280;64213;46.452;16.994;2023-09-12T01:06:51;99573.22;;;16.89;90.78
75629;BME280;64213;46.452;16.994;2023-09-12T01:09:54;99562.84;;;16.86;90.60
75629;BME280;64213;46.452;16.994;2023-09-12T01:12:56;99569.34;;;16.74;90.84
75629;BME280;64213;46.452;16.994;2023-09-12T01:15:58;99563.09;;;16.56;91.34
75629;BME280;64213;46.452;16.994;2023-09-12T01:19:01;99566.53;;;16.48;92.06
75629;BME280;64213;46.452;16.994;2023-09-12T01:25:55;99565.31;;;16.33;92.42
75629;BME280;64213;46.452;16.994;2023-09-12T01:29:03;99569.03;;;16.22;92.68
75629;BME280;64213;46.452;16.994;2023-09-12T01:32:08;99566.09;;;16.15;92.44
75629;BME280;64213;46.452;16.994;2023-09-12T01:35:11;99569.47;;;16.08;92.48
75629;BME280;64213;46.452;16.994;2023-09-12T01:38:14;99572.63;;;15.93;93.00
75629;BME280;64213;46.452;16.994;2023-09-12T01:41:17;99572.50;;;15.85;93.42
75629;BME280;64213;46.452;16.994;2023-09-12T01:44:24;99578.69;;;15.76;94.11
75629;BME280;64213;46.452;16.994;2023-09-12T01:47:27;99579.66;;;15.75;94.28
75629;BME280;64213;46.452;16.994;2023-09-12T01:50:31;99583.06;;;15.67;94.42
75629;BME280;64213;46.452;16.994;2023-09-12T01:53:34;99586.56;;;15.48;95.53
75629;BME280;64213;46.452;16.994;2023-09-12T01:56:38;99590.19;;;15.47;96.10
75629;BME280;64213;46.452;16.994;2023-09-12T01:59:40;99587.50;;;15.57;95.96
75629;BME280;64213;46.452;16.994;2023-09-12T02:02:43;99584.56;;;15.60;95.66
75629;BME280;64213;46.452;16.994;2023-09-12T02:05:45;99581.50;;;15.65;95.28
75629;BME280;64213;46.452;16.994;2023-09-12T02:08:47;99580.25;;;15.69;94.53
75629;BME280;64213;46.452;16.994;2023-09-12T02:11:51;99585.81;;;15.66;94.86
75629;BME280;64213;46.452;16.994;2023-09-12T02:14:53;99581.22;;;15.68;95.17
75629;BME280;64213;46.452;16.994;2023-09-12T02:17:55;99582.06;;;15.68;95.32
75629;BME280;64213;46.452;16.994;2023-09-12T02:20:58;99584.28;;;15.63;95.61
75629;BME280;64213;46.452;16.994;2023-09-12T02:24:00;99582.75;;;15.61;95.60
75629;BME280;64213;46.452;16.994;2023-09-12T02:27:03;99594.38;;;15.59;95.04
75629;BME280;64213;46.452;16.994;2023-09-12T02:30:06;99597.06;;;15.59;95.03
75629;BME280;64213;46.452;16.994;2023-09-12T02:33:08;99589.06;;;15.59;95.06
75629;BME280;64213;46.452;16.994;2023-09-12T02:36:11;99597.75;;;15.62;94.86
75629;BME280;64213;46.452;16.994;2023-09-12T02:39:13;99598.03;;;15.58;95.06
75629;BME280;64213;46.452;16.994;2023-09-12T02:42:16;99592.84;;;15.57;95.35
75629;BME280;64213;46.452;16.994;2023-09-12T02:45:18;99594.53;;;15.58;95.83
75629;BME280;64213;46.452;16.994;2023-09-12T02:48:20;99600.84;;;15.57;96.12
75629;BME280;64213;46.452;16.994;2023-09-12T02:51:25;99598.06;;;15.49;95.92
75629;BME280;64213;46.452;16.994;2023-09-12T02:54:29;99601.84;;;15.46;95.85
75629;BME280;64213;46.452;16.994;2023-09-12T02:57:32;99599.44;;;15.24;98.08
75629;BME280;64213;46.452;16.994;2023-09-12T03:00:38;99605.47;;;15.06;98.96
75629;BME280;64213;46.452;16.994;2023-09-12T03:03:42;99606.00;;;15.00;99.48
75629;BME280;64213;46.452;16.994;2023-09-12T03:06:44;99610.91;;;15.05;100.00
75629;BME280;64213;46.452;16.994;2023-09-12T03:09:50;99620.72;;;15.04;99.58
75629;BME280;64213;46.452;16.994;2023-09-12T03:12:52;99616.69;;;15.10;99.06
75629;BME280;64213;46.452;16.994;2023-09-12T03:15:54;99620.03;;;15.12;98.71
75629;BME280;64213;46.452;16.994;2023-09-12T03:18:56;99618.78;;;15.16;98.67
75629;BME280;64213;46.452;16.994;2023-09-12T03:21:58;99620.19;;;15.20;98.29
75629;BME280;64213;46.452;16.994;2023-09-12T03:25:01;99620.19;;;15.20;98.02
75629;BME280;64213;46.452;16.994;2023-09-12T03:28:05;99622.44;;;15.25;97.76
75629;BME280;64213;46.452;16.994;2023-09-12T03:31:13;99623.41;;;15.24;97.51
75629;BME280;64213;46.452;16.994;2023-09-12T03:34:16;99620.91;;;15.22;97.55
75629;BME280;64213;46.452;16.994;2023-09-12T03:37:18;99627.34;;;15.20;97.79
75629;BME280;64213;46.452;16.994;2023-09-12T03:40:20;99625.66;;;15.19;97.58
75629;BME280;64213;46.452;16.994;2023-09-12T03:43:23;99630.84;;;15.20;97.66
75629;BME280;64213;46.452;16.994;2023-09-12T03:46:25;99630.28;;;15.17;97.50
75629;BME280;64213;46.452;16.994;2023-09-12T03:49:27;99628.31;;;15.19;97.74
75629;BME280;64213;46.452;16.994;2023-09-12T03:52:30;99623.69;;;15.11;97.98
75629;BME280;64213;46.452;16.994;2023-09-12T03:55:32;99621.28;;;15.08;97.86
75629;BME280;64213;46.452;16.994;2023-09-12T03:58:35;99616.50;;;15.02;98.23
75629;BME280;64213;46.452;16.994;2023-09-12T04:01:37;99605.44;;;14.97;98.75
75629;BME280;64213;46.452;16.994;2023-09-12T04:04:39;99613.28;;;14.98;98.51
75629;BME280;64213;46.452;16.994;2023-09-12T04:07:42;99621.00;;;15.01;99.34
75629;BME280;64213;46.452;16.994;2023-09-12T04:10:44;99620.28;;;14.99;98.84
75629;BME280;64213;46.452;16.994;2023-09-12T04:13:46;99610.63;;;14.98;98.71
75629;BME280;64213;46.452;16.994;2023-09-12T04:16:48;99614.53;;;14.94;98.65
75629;BME280;64213;46.452;16.994;2023-09-12T04:19:51;99610.31;;;14.92;99.18
75629;BME280;64213;46.452;16.994;2023-09-12T04:22:53;99616.66;;;14.91;99.17
75629;BME280;64213;46.452;16.994;2023-09-12T04:25:55;99607.09;;;14.88;99.26
75629;BME280;64213;46.452;16.994;2023-09-12T04:28:57;99613.16;;;14.90;98.83
75629;BME280;64213;46.452;16.994;2023-09-12T04:31:59;99618.16;;;14.93;98.49
75629;BME280;64213;46.452;16.994;2023-09-12T04:35:02;99625.75;;;14.88;98.41
75629;BME280;64213;46.452;16.994;2023-09-12T04:38:05;99623.47;;;14.83;98.43
75629;BME280;64213;46.452;16.994;2023-09-12T04:41:07;99619.56;;;14.87;98.24
75629;BME280;64213;46.452;16.994;2023-09-12T04:44:10;99627.97;;;14.93;98.33
75629;BME280;64213;46.452;16.994;2023-09-12T04:47:12;99627.72;;;14.96;98.67
75629;BME280;64213;46.452;16.994;2023-09-12T04:50:15;99627.97;;;14.93;98.82
75629;BME280;64213;46.452;16.994;2023-09-12T04:53:17;99624.22;;;14.95;98.82
75629;BME280;64213;46.452;16.994;2023-09-12T04:56:19;99634.59;;;14.98;99.01
75629;BME280;64213;46.452;16.994;2023-09-12T04:59:22;99640.09;;;15.06;99.23
75629;BME280;64213;46.452;16.994;2023-09-12T05:02:24;99632.50;;;15.11;99.29
75629;BME280;64213;46.452;16.994;2023-09-12T05:05:27;99638.97;;;15.19;98.52
75629;BME280;64213;46.452;16.994;2023-09-12T05:08:30;99639.56;;;15.22;97.39
75629;BME280;64213;46.452;16.994;2023-09-12T05:11:32;99634.78;;;15.26;96.32
75629;BME280;64213;46.452;16.994;2023-09-12T05:14:34;99646.12;;;15.28;95.59
75629;BME280;64213;46.452;16.994;2023-09-12T05:17:36;99643.75;;;15.25;94.81
75629;BME280;64213;46.452;16.994;2023-09-12T05:20:38;99640.69;;;15.20;94.22
75629;BME280;64213;46.452;16.994;2023-09-12T05:23:41;99648.09;;;15.16;93.96
75629;BME280;64213;46.452;16.994;2023-09-12T05:26:43;99641.78;;;15.17;93.09
75629;BME280;64213;46.452;16.994;2023-09-12T05:29:45;99641.94;;;15.25;91.42
75629;BME280;64213;46.452;16.994;2023-09-12T05:32:48;99651.34;;;15.29;90.70
75629;BME280;64213;46.452;16.994;2023-09-12T05:35:50;99657.81;;;15.37;91.06
75629;BME280;64213;46.452;16.994;2023-09-12T05:38:52;99650.94;;;15.44;89.79
75629;BME280;64213;46.452;16.994;2023-09-12T05:41:54;99644.91;;;15.51;89.53
75629;BME280;64213;46.452;16.994;2023-09-12T05:44:57;99644.91;;;15.61;89.16
75629;BME280;64213;46.452;16.994;2023-09-12T05:48:00;99650.00;;;15.74;89.05
75629;BME280;64213;46.452;16.994;2023-09-12T05:51:02;99641.84;;;15.85;89.10
75629;BME280;64213;46.452;16.994;2023-09-12T05:54:05;99643.09;;;16.00;88.72
75629;BME280;64213;46.452;16.994;2023-09-12T05:57:08;99649.38;;;16.19;88.41
75629;BME280;64213;46.452;16.994;2023-09-12T06:00:11;99652.31;;;16.72;86.37
75629;BME280;64213;46.452;16.994;2023-09-12T06:03:14;99652.84;;;17.31;84.16
75629;BME280;64213;46.452;16.994;2023-09-12T06:06:17;99653.88;;;17.84;82.67
75629;BME280;64213;46.452;16.994;2023-09-12T06:09:20;99654.50;;;18.22;81.36
75629;BME280;64213;46.452;16.994;2023-09-12T06:12:22;99656.63;;;18.70;80.42
75629;BME280;64213;46.452;16.994;2023-09-12T06:15:25;99662.47;;;19.00;79.87
75629;BME280;64213;46.452;16.994;2023-09-12T06:18:30;99652.97;;;19.14;79.35
75629;BME280;64213;46.452;16.994;2023-09-12T06:21:33;99654.41;;;19.50;78.84
75629;BME280;64213;46.452;16.994;2023-09-12T06:24:35;99658.34;;;19.89;78.38
75629;BME280;64213;46.452;16.994;2023-09-12T06:27:38;99653.62;;;20.07;78.78
75629;BME280;64213;46.452;16.994;2023-09-12T06:30:40;99658.75;;;20.50;77.35
75629;BME280;64213;46.452;16.994;2023-09-12T06:33:43;99661.16;;;21.00;75.29
75629;BME280;64213;46.452;16.994;2023-09-12T06:36:45;99659.53;;;21.22;74.72
75629;BME280;64213;46.452;16.994;2023-09-12T06:39:49;99662.66;;;21.65;73.11
75629;BME280;64213;46.452;16.994;2023-09-12T06:42:52;99669.59;;;22.05;71.22
75629;BME280;64213;46.452;16.994;2023-09-12T06:45:55;99666.25;;;22.41;69.72
75629;BME280;64213;46.452;16.994;2023-09-12T06:48:57;99665.31;;;22.49;69.15
75629;BME280;64213;46.452;16.994;2023-09-12T06:52:00;99678.28;;;22.98;68.39
75629;BME280;64213;46.452;16.994;2023-09-12T06:55:02;99678.44;;;23.26;67.68
75629;BME280;64213;46.452;16.994;2023-09-12T06:58:05;99679.63;;;23.60;66.40
75629;BME280;64213;46.452;16.994;2023-09-12T07:01:08;99682.22;;;23.68;66.33
75629;BME280;64213;46.452;16.994;2023-09-12T07:04:10;99683.19;;;23.09;68.81
75629;BME280;64213;46.452;16.994;2023-09-12T07:07:12;99675.22;;;23.37;68.34
75629;BME280;64213;46.452;16.994;2023-09-12T07:10:15;99688.00;;;23.65;66.36
75629;BME280;64213;46.452;16.994;2023-09-12T07:13:25;99683.84;;;23.84;66.41
75629;BME280;64213;46.452;16.994;2023-09-12T07:16:28;99677.91;;;24.17;65.33
75629;BME280;64213;46.452;16.994;2023-09-12T07:19:30;99678.44;;;24.33;65.74
75629;BME280;64213;46.452;16.994;2023-09-12T07:22:32;99674.66;;;24.28;65.54
75629;BME280;64213;46.452;16.994;2023-09-12T07:25:41;99680.69;;;24.79;64.48
75629;BME280;64213;46.452;16.994;2023-09-12T07:28:44;99672.19;;;25.31;62.20
75629;BME280;64213;46.452;16.994;2023-09-12T07:31:46;99678.66;;;25.43;62.75
75629;BME280;64213;46.452;16.994;2023-09-12T07:34:48;99682.34;;;25.90;61.43
75629;BME280;64213;46.452;16.994;2023-09-12T07:37:51;99685.69;;;26.32;60.11
75629;BME280;64213;46.452;16.994;2023-09-12T07:40:53;99689.75;;;27.07;56.71
75629;BME280;64213;46.452;16.994;2023-09-12T07:43:56;99689.56;;;27.61;56.48
75629;BME280;64213;46.452;16.994;2023-09-12T07:46:58;99695.03;;;27.92;55.40
75629;BME280;64213;46.452;16.994;2023-09-12T07:50:01;99685.06;;;28.04;55.24
75629;BME280;64213;46.452;16.994;2023-09-12T07:53:04;99686.00;;;27.98;54.99
75629;BME280;64213;46.452;16.994;2023-09-12T07:56:09;99686.00;;;27.98;54.56
75629;BME280;64213;46.452;16.994;2023-09-12T07:59:12;99680.31;;;28.25;53.75
75629;BME280;64213;46.452;16.994;2023-09-12T08:02:16;99687.31;;;28.83;50.80
75629;BME280;64213;46.452;16.994;2023-09-12T08:05:18;99678.94;;;29.21;50.74
75629;BME280;64213;46.452;16.994;2023-09-12T08:08:21;99679.69;;;29.28;50.46
75629;BME280;64213;46.452;16.994;2023-09-12T08:11:23;99686.50;;;29.98;48.42
75629;BME280;64213;46.452;16.994;2023-09-12T08:14:26;99689.44;;;28.37;51.41
75629;BME280;64213;46.452;16.994;2023-09-12T08:17:28;99686.56;;;29.31;49.89
75629;BME280;64213;46.452;16.994;2023-09-12T08:20:31;99680.94;;;29.62;48.96
75629;BME280;64213;46.452;16.994;2023-09-12T08:23:33;99693.47;;;28.78;50.17
75629;BME280;64213;46.452;16.994;2023-09-12T08:26:36;99686.00;;;29.59;47.99
75629;BME280;64213;46.452;16.994;2023-09-12T08:29:38;99689.66;;;29.34;47.54
75629;BME280;64213;46.452;16.994;2023-09-12T08:32:41;99693.75;;;29.43;47.98
75629;BME280;64213;46.452;16.994;2023-09-12T08:35:46;99702.16;;;30.14;46.52
75629;BME280;64213;46.452;16.994;2023-09-12T08:38:48;99697.81;;;29.71;47.04
75629;BME280;64213;46.452;16.994;2023-09-12T08:41:51;99694.47;;;29.51;47.80
75629;BME280;64213;46.452;16.994;2023-09-12T08:44:54;99687.22;;;29.44;47.79
75629;BME280;64213;46.452;16.994;2023-09-12T08:47:59;99699.94;;;29.51;47.21
75629;BME280;64213;46.452;16.994;2023-09-12T08:51:04;99691.00;;;29.62;46.97
75629;BME280;64213;46.452;16.994;2023-09-12T08:54:09;99691.16;;;30.09;45.79
75629;BME280;64213;46.452;16.994;2023-09-12T08:57:12;99688.47;;;30.56;45.27
75629;BME280;64213;46.452;16.994;2023-09-12T09:00:15;99689.66;;;30.72;44.91
75629;BME280;64213;46.452;16.994;2023-09-12T09:03:18;99690.84;;;30.88;44.41
75629;BME280;64213;46.452;16.994;2023-09-12T09:06:22;99688.53;;;31.60;43.30
75629;BME280;64213;46.452;16.994;2023-09-12T09:09:25;99693.88;;;31.55;43.11
75629;BME280;64213;46.452;16.994;2023-09-12T09:12:29;99697.41;;;31.67;42.67
75629;BME280;64213;46.452;16.994;2023-09-12T09:15:31;99690.28;;;31.66;41.04
75629;BME280;64213;46.452;16.994;2023-09-12T09:18:59;99687.28;;;30.87;42.10
75629;BME280;64213;46.452;16.994;2023-09-12T09:22:05;99688.56;;;31.48;41.55
75629;BME280;64213;46.452;16.994;2023-09-12T09:25:11;99683.97;;;32.11;40.07
75629;BME280;64213;46.452;16.994;2023-09-12T09:28:19;99684.09;;;30.78;42.74
75629;BME280;64213;46.452;16.994;2023-09-12T09:31:22;99688.63;;;31.25;41.96
75629;BME280;64213;46.452;16.994;2023-09-12T09:34:24;99680.16;;;31.26;41.48
75629;BME280;64213;46.452;16.994;2023-09-12T09:37:29;99680.44;;;31.82;40.38
75629;BME280;64213;46.452;16.994;2023-09-12T09:40:32;99681.56;;;32.32;39.87
75629;BME280;64213;46.452;16.994;2023-09-12T09:43:35;99682.47;;;33.10;37.96
75629;BME280;64213;46.452;16.994;2023-09-12T09:46:38;99681.66;;;32.71;37.88
75629;BME280;64213;46.452;16.994;2023-09-12T09:49:40;99682.16;;;32.68;37.03
75629;BME280;64213;46.452;16.994;2023-09-12T09:52:43;99685.53;;;32.75;36.33
75629;BME280;64213;46.452;16.994;2023-09-12T09:55:46;99681.31;;;33.77;34.39
75629;BME280;64213;46.452;16.994;2023-09-12T09:58:51;99678.03;;;32.87;35.82
75629;BME280;64213;46.452;16.994;2023-09-12T10:01:57;99677.31;;;34.22;34.25
75629;BME280;64213;46.452;16.994;2023-09-12T10:05:02;99672.78;;;33.78;34.75
75629;BME280;64213;46.452;16.994;2023-09-12T10:08:07;99674.44;;;34.07;34.11
75629;BME280;64213;46.452;16.994;2023-09-12T10:11:15;99670.59;;;34.08;34.30
75629;BME280;64213;46.452;16.994;2023-09-12T10:14:20;99662.16;;;34.99;33.06
75629;BME280;64213;46.452;16.994;2023-09-12T10:17:27;99660.41;;;35.51;32.46
75629;BME280;64213;46.452;16.994;2023-09-12T10:20:37;99664.59;;;36.55;30.97
75629;BME280;64213;46.452;16.994;2023-09-12T10:23:44;99661.28;;;36.48;31.08
75629;BME280;64213;46.452;16.994;2023-09-12T10:26:50;99656.59;;;36.49;30.81
75629;BME280;64213;46.452;16.994;2023-09-12T10:29:52;99653.53;;;35.43;32.15
75629;BME280;64213;46.452;16.994;2023-09-12T10:32:56;99657.00;;;35.08;32.44
75629;BME280;64213;46.452;16.994;2023-09-12T10:35:59;99641.38;;;35.34;32.39
75629;BME280;64213;46.452;16.994;2023-09-12T10:39:04;99648.94;;;35.84;31.69
75629;BME280;64213;46.452;16.994;2023-09-12T10:42:07;99642.34;;;36.06;30.94
75629;BME280;64213;46.452;16.994;2023-09-12T10:45:10;99647.56;;;36.02;31.06
75629;BME280;64213;46.452;16.994;2023-09-12T10:48:12;99639.56;;;36.11;31.08
75629;BME280;64213;46.452;16.994;2023-09-12T10:51:16;99631.75;;;34.68;33.23
75629;BME280;64213;46.452;16.994;2023-09-12T10:54:24;99636.28;;;35.00;33.04
75629;BME280;64213;46.452;16.994;2023-09-12T10:57:26;99627.37;;;34.25;34.25
75629;BME280;64213;46.452;16.994;2023-09-12T11:00:30;99629.00;;;34.63;33.70
75629;BME280;64213;46.452;16.994;2023-09-12T11:03:36;99627.97;;;33.68;34.33
75629;BME280;64213;46.452;16.994;2023-09-12T11:06:40;99625.16;;;33.58;34.39
75629;BME280;64213;46.452;16.994;2023-09-12T11:09:42;99619.31;;;33.81;34.37
75629;BME280;64213;46.452;16.994;2023-09-12T11:12:51;99622.28;;;34.01;34.67
75629;BME280;64213;46.452;16.994;2023-09-12T11:16:16;99630.13;;;34.30;34.44
75629;BME280;64213;46.452;16.994;2023-09-12T11:19:22;99623.47;;;33.84;35.10
75629;BME280;64213;46.452;16.994;2023-09-12T11:22:30;99623.00;;;34.77;33.44
75629;BME280;64213;46.452;16.994;2023-09-12T11:25:34;99619.66;;;34.22;33.87
75629;BME280;64213;46.452;16.994;2023-09-12T11:28:38;99610.25;;;34.13;34.30
75629;BME280;64213;46.452;16.994;2023-09-12T11:31:54;99609.25;;;34.71;32.97
75629;BME280;64213;46.452;16.994;2023-09-12T11:35:05;99605.47;;;34.35;33.57
75629;BME280;64213;46.452;16.994;2023-09-12T11:38:10;99605.88;;;34.54;33.58
75629;BME280;64213;46.452;16.994;2023-09-12T11:41:13;99590.88;;;34.87;33.10
75629;BME280;64213;46.452;16.994;2023-09-12T11:44:16;99589.25;;;34.34;33.69
75629;BME280;64213;46.452;16.994;2023-09-12T11:47:19;99594.12;;;34.69;32.75
75629;BME280;64213;46.452;16.994;2023-09-12T11:50:35;99589.91;;;35.19;32.04
75629;BME280;64213;46.452;16.994;2023-09-12T11:53:40;99579.78;;;34.62;31.07
75629;BME280;64213;46.452;16.994;2023-09-12T11:56:44;99584.19;;;34.53;29.98
75629;BME280;64213;46.452;16.994;2023-09-12T11:59:47;99581.94;;;35.07;28.64
75629;BME280;64213;46.452;16.994;2023-09-12T12:02:54;99588.09;;;35.96;27.62
75629;BME280;64213;46.452;16.994;2023-09-12T12:05:57;99581.59;;;34.99;28.02
75629;BME280;64213;46.452;16.994;2023-09-12T12:09:00;99583.78;;;34.97;27.59
75629;BME280;64213;46.452;16.994;2023-09-12T12:12:13;99582.97;;;34.91;27.39
75629;BME280;64213;46.452;16.994;2023-09-12T12:15:16;99589.56;;;35.00;27.49
75629;BME280;64213;46.452;16.994;2023-09-12T12:18:18;99594.91;;;35.48;26.80
75629;BME280;64213;46.452;16.994;2023-09-12T12:21:21;99585.53;;;35.23;27.46
75629;BME280;64213;46.452;16.994;2023-09-12T12:24:23;99588.34;;;36.00;26.33
75629;BME280;64213;46.452;16.994;2023-09-12T12:27:27;99586.69;;;35.63;26.68
75629;BME280;64213;46.452;16.994;2023-09-12T12:30:31;99576.22;;;35.50;26.83
75629;BME280;64213;46.452;16.994;2023-09-12T12:33:34;99585.53;;;36.41;26.22
75629;BME280;64213;46.452;16.994;2023-09-12T12:36:57;99579.56;;;36.03;26.34
75629;BME280;64213;46.452;16.994;2023-09-12T12:40:00;99575.03;;;35.10;27.57
75629;BME280;64213;46.452;16.994;2023-09-12T12:43:03;99574.84;;;35.52;27.16
75629;BME280;64213;46.452;16.994;2023-09-12T12:46:10;99570.09;;;36.55;26.34
75629;BME280;64213;46.452;16.994;2023-09-12T12:49:17;99558.78;;;34.98;27.67
75629;BME280;64213;46.452;16.994;2023-09-12T12:52:23;99564.38;;;35.34;27.45
75629;BME280;64213;46.452;16.994;2023-09-12T12:55:27;99551.78;;;36.80;25.94
75629;BME280;64213;46.452;16.994;2023-09-12T12:58:30;99549.22;;;36.18;26.30
75629;BME280;64213;46.452;16.994;2023-09-12T13:01:36;99546.41;;;36.54;25.88
75629;BME280;64213;46.452;16.994;2023-09-12T13:04:40;99555.06;;;35.55;25.40
75629;BME280;64213;46.452;16.994;2023-09-12T13:07:42;99554.50;;;35.63;25.49
75629;BME280;64213;46.452;16.994;2023-09-12T13:10:44;99545.41;;;36.09;25.27
75629;BME280;64213;46.452;16.994;2023-09-12T13:13:47;99550.78;;;34.97;26.01
75629;BME280;64213;46.452;16.994;2023-09-12T13:16:53;99544.56;;;35.27;26.04
75629;BME280;64213;46.452;16.994;2023-09-12T13:19:56;99543.50;;;35.63;25.43
75629;BME280;64213;46.452;16.994;2023-09-12T13:22:58;99539.34;;;35.51;25.30
75629;BME280;64213;46.452;16.994;2023-09-12T13:26:01;99535.50;;;35.52;24.97
75629;BME280;64213;46.452;16.994;2023-09-12T13:29:03;99538.50;;;35.25;24.63
75629;BME280;64213;46.452;16.994;2023-09-12T13:32:06;99535.50;;;35.26;24.13
75629;BME280;64213;46.452;16.994;2023-09-12T13:35:08;99531.81;;;34.90;24.59
75629;BME280;64213;46.452;16.994;2023-09-12T13:38:11;99533.81;;;35.05;24.68
75629;BME280;64213;46.452;16.994;2023-09-12T13:41:14;99526.00;;;34.81;24.89
75629;BME280;64213;46.452;16.994;2023-09-12T13:44:16;99532.06;;;34.83;24.88
75629;BME280;64213;46.452;16.994;2023-09-12T13:47:19;99519.78;;;35.32;24.58
75629;BME280;64213;46.452;16.994;2023-09-12T13:50:26;99523.63;;;35.15;24.29
75629;BME280;64213;46.452;16.994;2023-09-12T13:53:30;99527.69;;;34.82;24.09
75629;BME280;64213;46.452;16.994;2023-09-12T13:56:32;99517.06;;;34.48;25.00
75629;BME280;64213;46.452;16.994;2023-09-12T13:59:35;99519.13;;;34.16;25.72
75629;BME280;64213;46.452;16.994;2023-09-12T14:02:46;99533.66;;;33.79;26.23
75629;BME280;64213;46.452;16.994;2023-09-12T14:05:49;99525.56;;;33.57;25.89
75629;BME280;64213;46.452;16.994;2023-09-12T14:08:53;99520.97;;;33.68;25.92
75629;BME280;64213;46.452;16.994;2023-09-12T14:11:56;99522.22;;;33.23;26.44
75629;BME280;64213;46.452;16.994;2023-09-12T14:14:59;99527.78;;;33.33;26.91
75629;BME280;64213;46.452;16.994;2023-09-12T14:18:10;99527.47;;;33.56;26.76
75629;BME280;64213;46.452;16.994;2023-09-12T14:21:15;99523.31;;;33.22;27.36
75629;BME280;64213;46.452;16.994;2023-09-12T14:24:19;99529.09;;;32.76;28.29
75629;BME280;64213;46.452;16.994;2023-09-12T14:27:22;99515.47;;;33.03;28.38
75629;BME280;64213;46.452;16.994;2023-09-12T14:30:28;99521.09;;;33.19;28.72
75629;BME280;64213;46.452;16.994;2023-09-12T14:33:37;99519.41;;;33.18;28.91
75629;BME280;64213;46.452;16.994;2023-09-12T14:36:40;99516.47;;;32.31;29.90
75629;BME280;64213;46.452;16.994;2023-09-12T14:39:43;99519.53;;;32.35;30.38
75629;BME280;64213;46.452;16.994;2023-09-12T14:42:46;99518.72;;;31.79;31.11
75629;BME280;64213;46.452;16.994;2023-09-12T14:45:49;99525.66;;;31.86;31.14
75629;BME280;64213;46.452;16.994;2023-09-12T14:48:52;99522.97;;;31.53;32.15
75629;BME280;64213;46.452;16.994;2023-09-12T14:52:04;99529.00;;;31.55;32.20
75629;BME280;64213;46.452;16.994;2023-09-12T14:55:16;99525.97;;;30.94;33.62
75629;BME280;64213;46.452;16.994;2023-09-12T14:58:19;99526.53;;;30.67;34.18
75629;BME280;64213;46.452;16.994;2023-09-12T15:01:22;99527.53;;;30.49;34.79
75629;BME280;64213;46.452;16.994;2023-09-12T15:04:27;99523.41;;;30.35;34.99
75629;BME280;64213;46.452;16.994;2023-09-12T15:07:30;99525.44;;;30.28;35.43
75629;BME280;64213;46.452;16.994;2023-09-12T15:10:34;99523.28;;;30.30;35.58
75629;BME280;64213;46.452;16.994;2023-09-12T15:13:37;99523.66;;;29.98;36.53
75629;BME280;64213;46.452;16.994;2023-09-12T15:16:43;99525.06;;;29.89;36.91
75629;BME280;64213;46.452;16.994;2023-09-12T15:19:46;99526.03;;;29.95;37.08
75629;BME280;64213;46.452;16.994;2023-09-12T15:22:49;99527.81;;;30.01;37.23
75629;BME280;64213;46.452;16.994;2023-09-12T15:25:52;99511.53;;;30.18;37.42
75629;BME280;64213;46.452;16.994;2023-09-12T15:28:54;99524.09;;;30.42;37.37
75629;BME280;64213;46.452;16.994;2023-09-12T15:31:59;99527.81;;;30.76;36.79
75629;BME280;64213;46.452;16.994;2023-09-12T15:35:02;99521.09;;;30.55;36.79
75629;BME280;64213;46.452;16.994;2023-09-12T15:38:05;99520.69;;;30.23;37.20
75629;BME280;64213;46.452;16.994;2023-09-12T15:41:08;99520.34;;;30.20;37.49
75629;BME280;64213;46.452;16.994;2023-09-12T15:44:10;99510.59;;;30.12;37.72
75629;BME280;64213;46.452;16.994;2023-09-12T15:47:17;99508.94;;;29.99;38.27
75629;BME280;64213;46.452;16.994;2023-09-12T15:50:21;99515.00;;;30.01;38.21
75629;BME280;64213;46.452;16.994;2023-09-12T15:53:24;99511.69;;;29.76;38.79
75629;BME280;64213;46.452;16.994;2023-09-12T15:56:27;99508.56;;;29.49;39.43
75629;BME280;64213;46.452;16.994;2023-09-12T15:59:30;99508.94;;;29.64;39.20
75629;BME280;64213;46.452;16.994;2023-09-12T16:02:33;99511.47;;;29.35;39.93
75629;BME280;64213;46.452;16.994;2023-09-12T16:05:36;99508.84;;;29.17;40.48